AirNav   Pilot Hours Calculator
 
 424 users online  

CL35 Warner Springs Gliderport
Warner Springs, California, USA

GOING TO WARNER SPRINGS?


FAA INFORMATION EFFECTIVE 09 SEPTEMBER 2021

Location

FAA Identifier: CL35
Lat/Long: 33-17-04.2100N 116-40-10.7650W
33-17.070167N 116-40.179417W
33.2845028,-116.6696569
(estimated)
Elevation: 2880 ft. / 878 m (estimated)
Variation: 13E (1985)
From city: 2 miles E of WARNER SPRINGS, CA
Time zone: UTC -7 (UTC -8 during Standard Time)
Zip code: 92086

Gliderport Operations

Gliderport use: Private use. Permission required prior to landing
Activation date: 10/1984
Control tower: no
ARTCC: LOS ANGELES CENTER
FSS: SAN DIEGO FLIGHT SERVICE STATION
Attendance: 0900-1700
Wind indicator: yes
Segmented circle: yes
Landing fee: yes

Gliderport Communications

UNICOM: 122.8
WX AWOS-3P at L08 (18 nm E): 126.575 (760-767-3308)
WX ASOS at RNM (19 nm SW): PHONE 760-789-7699

Nearby radio navigation aids

VOR radial/distance  VOR name  Freq  Var
JLIr319/9.6JULIAN VORTAC114.0015E
TRMr218/32.8THERMAL VORTAC116.2013E
PSPr186/37.1PALM SPRINGS VORTAC115.5013E
OCNr071/37.6OCEANSIDE VORTAC115.3015E
HDFr125/(39.2)HOMELAND VOR113.4014E

Gliderport Services

Runway Information

Runway 8/26

Dimensions: 3500 x 70 ft. / 1067 x 21 m
Surface: asphalt
RUNWAY 8  RUNWAY 26
Latitude: 33-17.060333N33-17.080000N
Longitude: 116-40.522667W116-39.836167W
Elevation: 2873.0 ft.2914.0 ft.
Traffic pattern: leftleft
Obstructions: none200 ft. hill, 5200 ft. from runway

Gliderport Ownership and Management from official FAA records

Ownership: Privately-owned
Owner: WARNER SPRINGS RANCH RESORT, LLC
31930 HWY 79
WARNER SPRINGS, CA 92086
Phone 760-782-4200
SKY SAILING 31930 HWY 79.
Manager: BRET WILLAT
SKY SAILING 31930 HWY 79
WARNER SPRINGS, CA 92086
Phone 760-782-0404
LEASEE.

Gliderport Operational Statistics

Aircraft based on the field: 80
Single engine airplanes: 10
Gliders airplanes: 70
    

Additional Remarks

FOR CD CTC LOS ANGELES ARTCC AT 661-575-2079.

Instrument Procedures

There are no published instrument procedures at CL35.

Some nearby airports with instrument procedures:

L08 - Borrego Valley Airport (18 nm E)
KRNM - Ramona Airport (19 nm SW)
F70 - French Valley Airport (29 nm NW)
L18 - Fallbrook Community Airpark (29 nm W)
KSEE - Gillespie Field Airport (31 nm SW)
 
Loc | Ops | Rwys | IFR | FBO | Links
Com | Nav | Svcs | Stats | Notes
Area around CL35 (Warner Springs Gliderport)
 
Road maps at: MapQuest Bing Google
 
Aerial photo
WARNING: Photo may not be current or correct
Aerial photo of CL35 (Warner Springs Gliderport)
Photo by Steve Lupinacci
Photo taken 27-May-2008

Do you have a better or more recent aerial photo of Warner Springs Gliderport that you would like to share? If so, please send us your photo.

 
Sectional chart

 
Airport distance calculator
Flying to Warner Springs Gliderport? Find the distance to fly.

From to CL35

Sunrise and sunset
Times for 27-Sep-2021
 Local
(UTC-7)
 Zulu
(UTC)
Morning civil twilight06:1413:14
Sunrise06:3913:39
Sunset18:3601:36
Evening civil twilight19:0102:01

Current date and time
Zulu (UTC)  27-Sep-2021 09:36:28
Local (UTC-7)  27-Sep-2021 02:36:28
 
METAR
KL08 
18nm E 
270915Z AUTO 15004KT 10SM SCT049 22/12 A2987 RMK AO2
KRNM 
20nm SW 
270853Z AUTO 30005KT 1/2SM FG VV002 15/15 A3004 RMK AO2 SLP161 T01500150 56001
KF70 
29nm NW 
270915Z AUTO 00000KT 10SM OVC007 16/15 A3004 RMK AO2
KL18 
29nm W 
270915Z AUTO 00000KT 2 1/2SM BR OVC003 16/15 A3004 RMK AO2
KSEE 
32nm SW 
270915Z AUTO 29004KT 10SM BKN009 OVC014 17/16 A3002 RMK AO2
KCRQ 
32nm W 
270853Z 00000KT 8SM OVC009 17/16 A3002 RMK AO2 CIG 007V011 SLP164 T01720156 56003
KHMT 
32nm NW 
270915Z AUTO 23005KT 5SM BR OVC009 16/16 A3004 RMK AO2 T01640159
KTRM 
33nm NE 
270852Z AUTO 35004KT 10SM CLR 24/14 A2985 RMK AO2 SLP110 T02440144 55005
KPSP 
33nm N 
270853Z AUTO 00000KT 10SM CLR 23/14 A2990 RMK AO2 SLP119 T02330144 58007
KNFG 
33nm W 
270855Z AUTO 00000KT 10SM FEW016 OVC023 21/15 A3002 RMK AO2 SLP165 T02110150 56004 $
TAF
KCRQ 
32nm W 
270520Z 2706/2806 26006KT P6SM OVC015 FM271100 VRB04KT P6SM OVC009 FM271600 VRB04KT P6SM OVC015 FM272000 26008KT P6SM BKN020 FM280200 VRB04KT P6SM OVC015
KTRM 
33nm NE 
270520Z 2706/2806 33007KT P6SM SKC FM270900 VRB04KT P6SM SKC FM272000 14007KT P6SM SCT150 FM280300 33009KT P6SM FEW150
KPSP 
33nm N 
270520Z 2706/2806 32012KT P6SM SKC FM270730 VRB04KT P6SM SKC FM271900 10006KT P6SM SCT150 FM280100 32012KT P6SM FEW150
KNFG 
33nm W 
2703/2803 VRB05KT 9999 OVC015 QNH2993INS TEMPO 2719/2801 24008KT SCT020 FM280130 VRB05KT 9999 BKN015 QNH2995INS T16/2713Z T22/2721Z
KNKX 
34nm SW 
2703/2803 VRB05KT 9999 OVC015 QNH2999INS BECMG 2717/2719 28007KT 9999 BKN020 QNH2994INS TEMPO 2719/2801 SCT020 FM280130 VRB05KT 9999 OVC015 QNH2995INS T16/2713Z T22/2720Z
NOTAMs
Click for the latest NOTAMs
NOTAMs are issued by the DoD/FAA and will open in a separate window not controlled by AirNav.

 

 
 

Would you like to see your business listed on this page?

 If your business provides an interesting product or service to pilots, flight crews, aircraft, or users of the Warner Springs Gliderport, you should consider listing it here.  To start the listing process, click on the button below
 
Add a business
 

Other Pages about Warner Springs Gliderport

www.agcsc.org/warner_springs_info.html
 
Update a link
 
Copyright © AirNav, LLC. All rights reserved. Privacy Policy  Contact